Time;durP1;ratioP1;P1;durP2;ratioP2;P2;SDS_P1;SDS_P2;PMS_P1;PMS_P2;Temp;Humidity;BMP_temperature;BMP_pressure;BME280_temperature;BME280_humidity;BME280_pressure;Samples;Min_cycle;Max_cycle;Signal;HPM_P1;HPM_P2
2024/03/29 00:01:55;;;;;;;18.33;9.25;;;;;;;;;;5014477;28;20030;-66
2024/03/29 00:04:41;;;;;;;20.13;7.97;;;;;;;;;;5013245;28;20030;-66
2024/03/29 00:07:27;;;;;;;20.92;8.38;;;;;;;;;;5012032;28;20475;-66
2024/03/29 00:10:12;;;;;;;17.35;9.68;;;;;;;;;;5004869;28;20052;-66
2024/03/29 00:12:58;;;;;;;16.33;7.38;;;;;;;;;;5010589;28;20030;-66
2024/03/29 00:15:45;;;;;;;10.93;7.03;;;;;;;;;;5012699;28;20022;-66
2024/03/29 00:18:31;;;;;;;13.13;6.45;;;;;;;;;;5011626;28;20026;-66
2024/03/29 00:21:17;;;;;;;14.60;5.85;;;;;;;;;;5013265;28;20092;-66
2024/03/29 00:24:03;;;;;;;11.02;6.15;;;;;;;;;;5003486;28;20407;-66
2024/03/29 00:26:48;;;;;;;8.35;4.55;;;;;;;;;;4996399;28;20522;-66
2024/03/29 00:29:34;;;;;;;12.43;5.47;;;;;;;;;;4992193;28;20034;-66
2024/03/29 00:32:21;;;;;;;9.20;4.65;;;;;;;;;;5006593;28;20026;-66
2024/03/29 00:35:07;;;;;;;7.28;4.60;;;;;;;;;;5011597;28;20551;-66
2024/03/29 00:37:53;;;;;;;7.03;3.63;;;;;;;;;;5008650;28;20045;-65
2024/03/29 00:40:39;;;;;;;10.85;3.72;;;;;;;;;;4991250;28;20019;-66
2024/03/29 00:43:24;;;;;;;5.07;3.63;;;;;;;;;;4999970;28;20428;-66
2024/03/29 00:46:10;;;;;;;5.38;3.83;;;;;;;;;;5011886;28;20022;-66
2024/03/29 00:48:55;;;;;;;4.60;3.40;;;;;;;;;;5010080;28;20105;-66
2024/03/29 00:51:41;;;;;;;7.15;3.35;;;;;;;;;;4992559;28;20026;-66
2024/03/29 00:54:27;;;;;;;3.40;2.70;;;;;;;;;;4991618;28;20022;-66
2024/03/29 00:57:14;;;;;;;6.13;3.33;;;;;;;;;;4993230;28;20023;-66
2024/03/29 01:00:00;;;;;;;9.82;3.72;;;;;;;;;;4994594;28;20072;-66
2024/03/29 01:02:45;;;;;;;6.85;3.00;;;;;;;;;;5014508;28;20026;-66
2024/03/29 01:05:31;;;;;;;4.53;3.20;;;;;;;;;;5015144;28;20057;-66
2024/03/29 01:08:16;;;;;;;5.85;3.13;;;;;;;;;;5015638;28;20030;-66
2024/03/29 01:11:02;;;;;;;5.88;2.95;;;;;;;;;;5016190;28;20033;-65
2024/03/29 01:13:48;;;;;;;5.55;3.05;;;;;;;;;;5007813;28;20088;-66
2024/03/29 01:16:33;;;;;;;6.28;3.28;;;;;;;;;;5012681;28;20034;-66
2024/03/29 01:19:19;;;;;;;3.90;2.95;;;;;;;;;;5014138;28;20049;-66
2024/03/29 01:22:04;;;;;;;5.15;3.33;;;;;;;;;;5015208;28;20515;-66
2024/03/29 01:24:50;;;;;;;7.03;3.30;;;;;;;;;;5010133;28;20117;-66
2024/03/29 01:27:36;;;;;;;6.43;3.30;;;;;;;;;;5014877;28;20017;-65
2024/03/29 01:30:22;;;;;;;7.95;3.35;;;;;;;;;;5014369;28;20026;-66
2024/03/29 01:33:08;;;;;;;4.03;2.70;;;;;;;;;;4999853;28;20407;-66
2024/03/29 01:35:53;;;;;;;3.55;2.97;;;;;;;;;;5008799;28;20030;-66
2024/03/29 01:38:39;;;;;;;5.22;3.00;;;;;;;;;;5013875;28;20053;-66
2024/03/29 01:41:28;;;;;;;6.95;3.60;;;;;;;;;;5015074;28;20029;-66
2024/03/29 01:44:14;;;;;;;4.10;3.08;;;;;;;;;;5013777;28;20495;-66
2024/03/29 01:47:00;;;;;;;5.55;3.20;;;;;;;;;;5014298;28;20483;-66
2024/03/29 01:49:45;;;;;;;7.40;3.47;;;;;;;;;;5001402;28;20028;-66
2024/03/29 01:52:31;;;;;;;8.90;3.05;;;;;;;;;;5014689;28;20054;-66
2024/03/29 01:55:17;;;;;;;3.50;2.28;;;;;;;;;;5013655;28;20029;-66
2024/03/29 01:58:03;;;;;;;6.35;3.13;;;;;;;;;;4998857;28;20022;-65
2024/03/29 02:00:53;;;;;;;7.63;2.50;;;;;;;;;;5003198;28;20034;-66
2024/03/29 02:03:39;;;;;;;9.10;3.05;;;;;;;;;;5012871;28;20117;-66
2024/03/29 02:06:25;;;;;;;7.45;3.90;;;;;;;;;;5014171;28;20030;-66
2024/03/29 02:09:10;;;;;;;7.88;3.00;;;;;;;;;;5000223;28;20088;-66
2024/03/29 02:11:56;;;;;;;3.25;2.70;;;;;;;;;;5015743;28;20021;-66
2024/03/29 02:14:42;;;;;;;3.38;2.80;;;;;;;;;;5015353;28;20400;-66
2024/03/29 02:17:28;;;;;;;6.13;3.33;;;;;;;;;;5015201;28;20603;-66
2024/03/29 02:20:13;;;;;;;4.20;2.55;;;;;;;;;;5013546;28;20053;-66
2024/03/29 02:23:06;;;;;;;8.30;2.47;;;;;;;;;;5009375;28;20396;-66
2024/03/29 02:25:52;;;;;;;4.50;2.63;;;;;;;;;;5012581;28;20026;-66
2024/03/29 02:28:37;;;;;;;4.30;2.58;;;;;;;;;;5004687;28;20022;-66
2024/03/29 02:31:23;;;;;;;3.50;2.53;;;;;;;;;;5013811;28;20553;-65
2024/03/29 02:34:09;;;;;;;5.32;3.63;;;;;;;;;;5000953;28;20113;-66
2024/03/29 02:36:56;;;;;;;5.22;2.72;;;;;;;;;;5013438;28;20487;-65
2024/03/29 02:39:42;;;;;;;4.13;2.85;;;;;;;;;;5013516;28;20030;-66
2024/03/29 02:42:28;;;;;;;4.95;2.65;;;;;;;;;;5015386;28;20018;-66
2024/03/29 02:45:13;;;;;;;4.22;2.83;;;;;;;;;;5004427;28;20034;-66
2024/03/29 02:47:59;;;;;;;6.93;2.80;;;;;;;;;;4993178;28;20515;-66
2024/03/29 02:50:45;;;;;;;6.57;2.85;;;;;;;;;;4999483;28;20101;-66
2024/03/29 02:53:30;;;;;;;4.30;3.10;;;;;;;;;;4992674;28;20117;-66
2024/03/29 02:56:20;;;;;;;7.60;2.90;;;;;;;;;;5008164;28;20026;-66
2024/03/29 02:59:06;;;;;;;4.05;2.90;;;;;;;;;;5011197;28;20083;-66
2024/03/29 03:01:52;;;;;;;7.53;3.63;;;;;;;;;;5003006;28;20108;-66
2024/03/29 03:04:37;;;;;;;7.07;2.67;;;;;;;;;;5014286;28;20083;-66
2024/03/29 03:13:32;;;;;;;5.10;3.83;;;;;;;;;;4995392;28;20176;-66
2024/03/29 03:16:17;;;;;;;4.20;3.05;;;;;;;;;;4993771;28;20112;-66
2024/03/29 03:19:03;;;;;;;4.97;2.28;;;;;;;;;;4992818;28;20403;-66
2024/03/29 03:21:50;;;;;;;7.30;2.60;;;;;;;;;;4993010;28;20165;-66
2024/03/29 03:24:36;;;;;;;6.55;2.90;;;;;;;;;;4982527;28;20041;-66
2024/03/29 03:27:23;;;;;;;6.18;3.17;;;;;;;;;;5010384;28;20074;-66
2024/03/29 03:30:09;;;;;;;6.78;2.42;;;;;;;;;;5000400;28;20029;-66
2024/03/29 03:32:55;;;;;;;3.20;2.72;;;;;;;;;;4992597;28;20057;-66
2024/03/29 03:35:44;;;;;;;3.08;2.45;;;;;;;;;;4994712;28;20089;-66
2024/03/29 03:38:30;;;;;;;4.85;3.03;;;;;;;;;;5013347;28;20021;-66
2024/03/29 03:41:16;;;;;;;4.78;3.20;;;;;;;;;;4997716;28;20588;-66
2024/03/29 03:44:02;;;;;;;9.13;3.10;;;;;;;;;;4985453;28;20030;-66
2024/03/29 03:46:47;;;;;;;3.60;2.78;;;;;;;;;;4994219;28;20026;-66
2024/03/29 03:49:33;;;;;;;6.63;3.17;;;;;;;;;;5008253;28;20395;-66
2024/03/29 03:52:19;;;;;;;5.60;3.25;;;;;;;;;;5013385;28;20057;-65
2024/03/29 03:55:05;;;;;;;6.70;4.47;;;;;;;;;;5009230;28;20025;-66
2024/03/29 03:57:51;;;;;;;5.20;2.30;;;;;;;;;;5012744;28;20397;-66
2024/03/29 04:00:37;;;;;;;9.45;3.95;;;;;;;;;;5008741;28;20030;-66
2024/03/29 04:03:23;;;;;;;3.88;3.00;;;;;;;;;;5012754;28;20029;-66
2024/03/29 04:06:08;;;;;;;6.75;2.92;;;;;;;;;;5013185;28;20049;-65
2024/03/29 04:08:54;;;;;;;4.80;3.15;;;;;;;;;;5004042;28;20385;-66
2024/03/29 04:11:39;;;;;;;6.65;3.00;;;;;;;;;;4992061;28;20058;-66
2024/03/29 04:14:25;;;;;;;5.95;3.00;;;;;;;;;;4997792;28;20053;-66
2024/03/29 04:17:11;;;;;;;10.27;3.33;;;;;;;;;;4992469;28;20026;-66
2024/03/29 04:19:57;;;;;;;8.00;2.50;;;;;;;;;;4992272;28;20502;-66
2024/03/29 04:22:45;;;;;;;5.45;3.08;;;;;;;;;;4993735;28;20022;-66
2024/03/29 04:25:30;;;;;;;7.50;3.88;;;;;;;;;;5000628;28;20026;-66
2024/03/29 04:28:16;;;;;;;5.13;3.97;;;;;;;;;;5012573;28;20073;-66
2024/03/29 04:31:01;;;;;;;3.55;1.92;;;;;;;;;;5009916;28;20065;-66
2024/03/29 04:33:47;;;;;;;4.20;2.60;;;;;;;;;;4995577;28;20050;-66
2024/03/29 04:36:33;;;;;;;5.53;2.72;;;;;;;;;;4996093;28;20054;-66
2024/03/29 04:39:18;;;;;;;4.00;2.80;;;;;;;;;;4995999;28;20034;-66
2024/03/29 04:42:04;;;;;;;4.93;2.42;;;;;;;;;;4997002;28;20399;-66
2024/03/29 04:44:51;;;;;;;4.82;2.95;;;;;;;;;;5015642;28;20029;-66
2024/03/29 04:47:36;;;;;;;4.57;2.85;;;;;;;;;;4994473;28;20022;-65
2024/03/29 04:50:22;;;;;;;12.13;3.00;;;;;;;;;;4997078;28;20030;-66
2024/03/29 04:53:08;;;;;;;3.38;2.45;;;;;;;;;;5007704;28;20022;-68
2024/03/29 04:55:54;;;;;;;2.60;2.40;;;;;;;;;;5015397;28;20106;-66
2024/03/29 04:58:40;;;;;;;7.60;3.20;;;;;;;;;;5009600;28;20431;-66
2024/03/29 05:01:26;;;;;;;5.10;3.22;;;;;;;;;;4995372;28;20022;-66
2024/03/29 05:04:12;;;;;;;4.30;2.70;;;;;;;;;;4999574;28;20022;-66
2024/03/29 05:06:58;;;;;;;8.48;2.30;;;;;;;;;;5016111;28;20399;-66
2024/03/29 05:09:44;;;;;;;4.85;3.05;;;;;;;;;;5015988;28;20048;-66
2024/03/29 05:12:29;;;;;;;4.45;3.10;;;;;;;;;;5017165;28;20032;-66
2024/03/29 05:15:15;;;;;;;5.75;2.72;;;;;;;;;;5009515;28;20066;-66
2024/03/29 05:18:01;;;;;;;4.97;2.90;;;;;;;;;;4996279;28;20037;-66
2024/03/29 05:20:51;;;;;;;5.85;3.30;;;;;;;;;;5006006;28;20022;-66
2024/03/29 05:23:36;;;;;;;4.55;2.70;;;;;;;;;;5014891;28;20022;-66
2024/03/29 05:26:22;;;;;;;7.72;4.30;;;;;;;;;;5013426;28;20048;-66
2024/03/29 05:29:08;;;;;;;6.57;2.92;;;;;;;;;;5014906;28;20022;-66
2024/03/29 05:31:53;;;;;;;5.68;3.20;;;;;;;;;;5015404;28;20036;-66
2024/03/29 05:34:39;;;;;;;6.57;2.75;;;;;;;;;;5001205;28;20022;-66
2024/03/29 05:37:25;;;;;;;6.50;2.17;;;;;;;;;;5013401;28;20407;-66
2024/03/29 05:40:11;;;;;;;7.10;2.53;;;;;;;;;;5016126;28;20030;-66
2024/03/29 05:42:56;;;;;;;5.30;2.30;;;;;;;;;;5014824;28;20022;-66
2024/03/29 05:45:42;;;;;;;6.45;2.83;;;;;;;;;;5014262;28;20028;-65
2024/03/29 05:48:28;;;;;;;4.45;2.97;;;;;;;;;;5013249;28;20018;-66
2024/03/29 05:51:14;;;;;;;3.25;2.40;;;;;;;;;;4996571;28;20130;-66
2024/03/29 05:54:00;;;;;;;3.80;1.73;;;;;;;;;;4999705;28;20454;-66
2024/03/29 05:56:45;;;;;;;6.63;3.08;;;;;;;;;;4997288;28;20041;-66
2024/03/29 05:59:31;;;;;;;7.15;2.47;;;;;;;;;;4996766;28;20484;-66
2024/03/29 06:02:17;;;;;;;5.47;2.72;;;;;;;;;;4995175;28;20134;-66
2024/03/29 06:05:03;;;;;;;8.35;2.33;;;;;;;;;;5000333;28;20040;-65
2024/03/29 06:07:49;;;;;;;4.43;2.30;;;;;;;;;;4999828;28;20021;-65
2024/03/29 06:10:34;;;;;;;5.50;2.05;;;;;;;;;;5002549;28;20501;-66
2024/03/29 06:17:22;;;;;;;5.22;2.42;;;;;;;;;;5005123;28;20108;-66
2024/03/29 06:19:39;;;;;;;4.13;2.75;;;;;;;;;;5013859;28;20034;-66
2024/03/29 06:22:24;;;;;;;5.00;2.53;;;;;;;;;;5014485;28;20021;-66
2024/03/29 06:25:10;;;;;;;2.95;1.83;;;;;;;;;;4999961;28;20392;-66
2024/03/29 06:27:56;;;;;;;10.27;2.33;;;;;;;;;;5014159;28;20068;-66
2024/03/29 06:30:41;;;;;;;3.65;2.60;;;;;;;;;;5014947;28;20053;-66
2024/03/29 06:33:27;;;;;;;5.00;2.47;;;;;;;;;;5003118;28;20038;-66
2024/03/29 06:36:13;;;;;;;5.85;2.28;;;;;;;;;;4993724;28;20022;-66
2024/03/29 06:38:58;;;;;;;4.93;2.45;;;;;;;;;;5000792;28;20112;-66
2024/03/29 06:41:44;;;;;;;3.63;2.50;;;;;;;;;;4993288;28;20034;-66
2024/03/29 06:44:30;;;;;;;7.85;2.60;;;;;;;;;;5002725;28;20054;-66
2024/03/29 06:47:15;;;;;;;5.93;2.72;;;;;;;;;;4995514;28;20108;-66
2024/03/29 06:50:01;;;;;;;6.00;3.55;;;;;;;;;;4996832;28;20037;-65
2024/03/29 06:52:46;;;;;;;4.10;2.03;;;;;;;;;;5013399;28;20026;-66
2024/03/29 06:55:32;;;;;;;4.47;2.58;;;;;;;;;;5013301;28;20053;-65
2024/03/29 06:58:18;;;;;;;4.82;2.45;;;;;;;;;;4992852;28;20476;-66
2024/03/29 07:01:03;;;;;;;4.72;3.00;;;;;;;;;;4993849;28;20439;-66
2024/03/29 07:03:49;;;;;;;3.40;2.25;;;;;;;;;;4999299;28;20022;-66
2024/03/29 07:06:37;;;;;;;2.90;2.30;;;;;;;;;;4993147;28;20018;-66
2024/03/29 07:09:23;;;;;;;8.65;2.42;;;;;;;;;;4998958;28;20029;-66
2024/03/29 07:12:09;;;;;;;4.00;2.50;;;;;;;;;;4979700;28;20030;-66
2024/03/29 07:14:54;;;;;;;4.00;2.28;;;;;;;;;;5002816;28;20040;-66
2024/03/29 07:17:40;;;;;;;5.78;2.17;;;;;;;;;;4993823;28;20471;-66
2024/03/29 07:20:26;;;;;;;7.15;3.58;;;;;;;;;;4999244;28;20018;-65
2024/03/29 07:23:14;;;;;;;3.13;2.78;;;;;;;;;;4994910;28;20451;-66
2024/03/29 07:26:05;;;;;;;11.02;2.53;;;;;;;;;;4984988;28;20018;-66
2024/03/29 07:28:51;;;;;;;8.57;2.75;;;;;;;;;;4997324;28;20130;-66
2024/03/29 07:31:36;;;;;;;4.10;2.10;;;;;;;;;;4993903;28;20037;-66
2024/03/29 07:34:22;;;;;;;8.55;2.70;;;;;;;;;;4996142;28;20025;-65
2024/03/29 07:37:09;;;;;;;3.33;2.25;;;;;;;;;;5010468;28;20037;-66
2024/03/29 07:39:55;;;;;;;4.47;2.83;;;;;;;;;;5008643;28;20050;-65
2024/03/29 07:42:41;;;;;;;4.90;3.05;;;;;;;;;;4994674;28;20026;-66
2024/03/29 07:45:27;;;;;;;6.03;2.65;;;;;;;;;;5005284;28;20099;-66
2024/03/29 07:48:16;;;;;;;4.43;2.00;;;;;;;;;;5011034;28;20030;-66
2024/03/29 07:51:02;;;;;;;8.20;2.55;;;;;;;;;;5013439;28;20026;-65
2024/03/29 07:53:48;;;;;;;3.35;2.08;;;;;;;;;;5012049;28;20112;-66
2024/03/29 07:56:33;;;;;;;12.90;2.70;;;;;;;;;;4996303;28;20022;-66
2024/03/29 07:59:19;;;;;;;3.58;2.25;;;;;;;;;;4992314;28;20030;-66
2024/03/29 08:02:05;;;;;;;2.40;1.77;;;;;;;;;;5006453;28;20049;-66
2024/03/29 08:04:52;;;;;;;2.58;2.22;;;;;;;;;;5011752;28;20072;-66
2024/03/29 08:07:38;;;;;;;3.58;1.70;;;;;;;;;;5000734;28;20037;-66
2024/03/29 08:10:23;;;;;;;5.68;2.22;;;;;;;;;;4996100;28;20084;-66
2024/03/29 08:13:09;;;;;;;3.33;1.92;;;;;;;;;;5004075;28;20169;-66
2024/03/29 08:15:59;;;;;;;5.50;2.15;;;;;;;;;;5009052;28;20033;-66
2024/03/29 08:18:47;;;;;;;3.38;2.35;;;;;;;;;;5008628;28;20545;-66
2024/03/29 08:21:33;;;;;;;5.35;2.30;;;;;;;;;;5014531;28;20026;-66
2024/03/29 08:24:19;;;;;;;2.35;1.92;;;;;;;;;;5016620;28;20028;-66
2024/03/29 08:27:05;;;;;;;7.50;2.03;;;;;;;;;;5015253;28;20033;-66
2024/03/29 08:29:50;;;;;;;3.75;2.10;;;;;;;;;;4996466;28;20434;-66
2024/03/29 08:32:36;;;;;;;3.15;2.35;;;;;;;;;;5002586;28;20025;-66
2024/03/29 08:35:21;;;;;;;3.78;2.38;;;;;;;;;;4996035;28;20033;-66
2024/03/29 08:38:07;;;;;;;3.47;2.03;;;;;;;;;;4998432;28;20025;-65
2024/03/29 08:40:53;;;;;;;5.20;2.50;;;;;;;;;;4995708;28;20026;-66
2024/03/29 08:43:38;;;;;;;4.63;1.90;;;;;;;;;;4995847;28;20510;-65
2024/03/29 08:46:24;;;;;;;4.22;1.77;;;;;;;;;;5013449;28;20537;-66
2024/03/29 08:49:10;;;;;;;3.70;2.20;;;;;;;;;;5015077;28;20037;-66
2024/03/29 08:51:56;;;;;;;4.82;2.10;;;;;;;;;;5014424;28;20105;-66
2024/03/29 08:54:42;;;;;;;4.13;2.78;;;;;;;;;;5000837;28;20030;-66
2024/03/29 08:57:27;;;;;;;5.55;2.05;;;;;;;;;;5003645;28;20110;-67
2024/03/29 09:00:13;;;;;;;4.05;2.08;;;;;;;;;;4996204;28;20041;-66
2024/03/29 09:02:59;;;;;;;2.33;2.05;;;;;;;;;;5006372;28;20026;-66
2024/03/29 09:05:45;;;;;;;2.75;1.73;;;;;;;;;;5016088;28;20419;-66
2024/03/29 09:08:30;;;;;;;3.53;1.90;;;;;;;;;;5011818;28;20025;-66
2024/03/29 09:11:16;;;;;;;2.90;1.63;;;;;;;;;;4995248;28;20133;-66
2024/03/29 09:14:03;;;;;;;4.07;1.80;;;;;;;;;;4996097;28;20040;-65
2024/03/29 09:16:49;;;;;;;10.57;2.05;;;;;;;;;;4995142;28;20451;-66
2024/03/29 09:19:35;;;;;;;5.70;2.10;;;;;;;;;;4996182;28;20085;-66
2024/03/29 09:22:20;;;;;;;4.22;1.88;;;;;;;;;;4998511;28;20022;-66
2024/03/29 09:25:09;;;;;;;2.70;1.70;;;;;;;;;;4994678;28;20037;-66
2024/03/29 09:27:54;;;;;;;4.43;2.38;;;;;;;;;;4999881;28;20041;-66
2024/03/29 09:30:40;;;;;;;4.60;1.70;;;;;;;;;;4994725;28;20384;-66
2024/03/29 09:33:26;;;;;;;3.28;2.13;;;;;;;;;;5006382;28;20029;-66
2024/03/29 09:36:11;;;;;;;2.63;1.75;;;;;;;;;;5013552;28;20034;-66
2024/03/29 09:38:57;;;;;;;3.00;2.10;;;;;;;;;;5005854;28;20027;-66
2024/03/29 09:41:45;;;;;;;2.80;2.00;;;;;;;;;;4994343;28;20030;-65
2024/03/29 09:44:32;;;;;;;3.65;2.10;;;;;;;;;;5000784;28;20129;-65
2024/03/29 09:47:17;;;;;;;2.97;1.80;;;;;;;;;;5009056;28;20060;-66
2024/03/29 09:50:04;;;;;;;7.47;2.20;;;;;;;;;;4995780;28;20052;-66
2024/03/29 09:52:50;;;;;;;3.88;1.92;;;;;;;;;;5005720;28;20018;-66
2024/03/29 09:55:36;;;;;;;3.17;2.22;;;;;;;;;;5013995;28;20646;-66
2024/03/29 09:58:22;;;;;;;8.43;2.72;;;;;;;;;;5010010;28;20046;-66
2024/03/29 10:01:10;;;;;;;5.50;2.00;;;;;;;;;;4999551;28;20034;-66
2024/03/29 10:03:56;;;;;;;3.72;2.15;;;;;;;;;;4988038;28;20064;-67
2024/03/29 10:06:44;;;;;;;4.32;2.30;;;;;;;;;;4980229;28;20102;-66
2024/03/29 10:09:32;;;;;;;4.32;1.92;;;;;;;;;;5009224;28;20447;-66
2024/03/29 10:12:20;;;;;;;6.55;2.58;;;;;;;;;;5013428;28;20021;-66
2024/03/29 10:15:14;;;;;;;7.13;2.00;;;;;;;;;;5012144;28;20086;-66
2024/03/29 10:17:59;;;;;;;5.78;1.67;;;;;;;;;;5012162;28;20518;-66
2024/03/29 10:20:46;;;;;;;3.88;1.90;;;;;;;;;;5012117;28;20034;-66
2024/03/29 10:23:32;;;;;;;2.97;1.98;;;;;;;;;;4997582;28;20046;-66
2024/03/29 10:26:18;;;;;;;8.45;2.00;;;;;;;;;;5012205;28;20045;-65
2024/03/29 10:29:04;;;;;;;5.97;2.03;;;;;;;;;;5013614;28;20049;-66
2024/03/29 10:31:51;;;;;;;1.55;1.40;;;;;;;;;;5013585;28;20053;-66
2024/03/29 10:34:37;;;;;;;4.13;1.65;;;;;;;;;;5014997;28;20071;-66
2024/03/29 10:37:29;;;;;;;2.83;1.75;;;;;;;;;;5011909;28;20032;-66
2024/03/29 10:40:16;;;;;;;2.85;1.60;;;;;;;;;;5011537;28;20049;-66
2024/03/29 10:43:04;;;;;;;3.45;1.60;;;;;;;;;;5013255;28;20025;-66
2024/03/29 10:45:58;;;;;;;2.72;1.55;;;;;;;;;;5011320;28;20026;-66
2024/03/29 10:48:46;;;;;;;3.35;1.83;;;;;;;;;;4998051;28;20113;-66
2024/03/29 10:51:32;;;;;;;3.35;2.45;;;;;;;;;;5000170;28;20443;-65
2024/03/29 10:54:16;;;;;;;4.03;1.50;;;;;;;;;;5010309;28;20032;-66
2024/03/29 10:57:12;;;;;;;2.50;1.63;;;;;;;;;;5011291;28;20169;-66
2024/03/29 11:00:14;;;;;;;3.45;1.33;;;;;;;;;;4992591;28;20073;-66
2024/03/29 11:03:20;;;;;;;4.18;1.98;;;;;;;;;;4993556;28;20057;-66
2024/03/29 11:06:05;;;;;;;2.88;1.40;;;;;;;;;;5002428;28;20048;-66
2024/03/29 11:08:52;;;;;;;3.00;1.83;;;;;;;;;;5004619;28;20045;-66
2024/03/29 11:11:39;;;;;;;4.10;1.90;;;;;;;;;;4978807;28;20486;-66
2024/03/29 11:14:49;;;;;;;5.50;1.90;;;;;;;;;;4999636;28;20449;-66
2024/03/29 11:17:35;;;;;;;2.08;1.60;;;;;;;;;;4993483;28;20427;-66
2024/03/29 11:20:33;;;;;;;2.13;1.25;;;;;;;;;;4987799;28;20436;-66
2024/03/29 11:23:20;;;;;;;1.83;1.52;;;;;;;;;;4982457;28;20026;-66
2024/03/29 11:26:06;;;;;;;1.50;1.40;;;;;;;;;;4996946;28;20519;-66
2024/03/29 11:28:52;;;;;;;1.88;1.58;;;;;;;;;;5000734;28;20048;-65
2024/03/29 11:31:38;;;;;;;1.73;1.25;;;;;;;;;;5012444;28;20037;-66
2024/03/29 11:34:24;;;;;;;1.98;1.83;;;;;;;;;;5010846;28;20114;-66
2024/03/29 11:37:11;;;;;;;4.35;1.85;;;;;;;;;;4994207;28;20038;-66
2024/03/29 11:39:59;;;;;;;2.63;1.58;;;;;;;;;;4994970;28;20061;-66
2024/03/29 11:42:47;;;;;;;1.85;1.35;;;;;;;;;;4994226;28;20034;-66
2024/03/29 11:45:34;;;;;;;3.45;1.80;;;;;;;;;;4993271;28;20459;-66
2024/03/29 11:48:25;;;;;;;2.20;1.50;;;;;;;;;;5009920;28;20116;-66
2024/03/29 11:51:14;;;;;;;2.53;1.58;;;;;;;;;;5011833;28;20022;-65
2024/03/29 11:54:01;;;;;;;1.52;1.42;;;;;;;;;;4999482;28;20401;-66
2024/03/29 11:56:47;;;;;;;3.08;1.40;;;;;;;;;;4992310;28;20026;-66
2024/03/29 11:59:33;;;;;;;3.00;0.90;;;;;;;;;;5028800;23;20403;-68
2024/03/29 12:02:19;;;;;;;2.08;1.70;;;;;;;;;;5031665;28;20072;-66
2024/03/29 12:05:10;;;;;;;1.95;1.65;;;;;;;;;;5045996;28;20490;-66
2024/03/29 12:07:57;;;;;;;4.68;1.80;;;;;;;;;;5033410;28;20033;-66
2024/03/29 12:10:42;;;;;;;2.72;1.80;;;;;;;;;;5013203;28;20026;-66
2024/03/29 12:13:28;;;;;;;4.53;1.70;;;;;;;;;;5002036;28;20027;-66
2024/03/29 12:16:15;;;;;;;1.90;1.52;;;;;;;;;;4978951;28;20569;-66
2024/03/29 12:19:00;;;;;;;1.85;1.48;;;;;;;;;;5007328;28;20092;-66
2024/03/29 12:21:46;;;;;;;4.90;1.95;;;;;;;;;;5006836;28;20045;-66
2024/03/29 12:24:32;;;;;;;3.75;1.63;;;;;;;;;;4998390;28;20618;-66
2024/03/29 12:27:17;;;;;;;1.98;1.77;;;;;;;;;;5021410;28;20033;-66
2024/03/29 12:30:04;;;;;;;3.67;1.73;;;;;;;;;;5000410;28;20033;-67
2024/03/29 12:33:06;;;;;;;1.95;1.83;;;;;;;;;;5003587;28;20514;-65
2024/03/29 12:35:54;;;;;;;3.95;1.65;;;;;;;;;;5021243;28;20057;-66
2024/03/29 12:38:41;;;;;;;2.50;1.63;;;;;;;;;;5013453;28;20026;-66
2024/03/29 12:41:29;;;;;;;2.65;1.60;;;;;;;;;;5014042;28;20573;-64
2024/03/29 12:44:14;;;;;;;2.95;2.42;;;;;;;;;;5025852;28;20025;-65
2024/03/29 12:47:00;;;;;;;3.60;1.88;;;;;;;;;;5009583;28;20025;-66
2024/03/29 12:49:47;;;;;;;2.20;1.85;;;;;;;;;;4997568;28;20022;-66
2024/03/29 12:52:40;;;;;;;2.55;1.70;;;;;;;;;;5011596;28;20061;-66
2024/03/29 12:55:36;;;;;;;2.47;1.55;;;;;;;;;;5022088;28;20514;-65
2024/03/29 12:58:22;;;;;;;3.63;1.40;;;;;;;;;;4989007;28;20121;-66
2024/03/29 13:01:09;;;;;;;3.85;1.73;;;;;;;;;;5016444;28;20029;-65
2024/03/29 13:03:55;;;;;;;2.95;1.83;;;;;;;;;;5014561;28;20037;-65
2024/03/29 13:06:41;;;;;;;2.30;1.73;;;;;;;;;;5000425;28;20066;-65
2024/03/29 13:09:26;;;;;;;2.50;1.70;;;;;;;;;;5016014;28;20088;-66
2024/03/29 13:12:12;;;;;;;1.80;1.52;;;;;;;;;;5007684;28;20026;-66
2024/03/29 13:15:04;;;;;;;2.60;1.45;;;;;;;;;;5031288;28;20056;-65
2024/03/29 13:17:49;;;;;;;2.15;1.92;;;;;;;;;;5034542;28;20098;-66
2024/03/29 13:20:40;;;;;;;3.05;1.92;;;;;;;;;;5019613;28;20025;-66
2024/03/29 13:23:26;;;;;;;3.70;1.60;;;;;;;;;;5017610;28;20019;-65
2024/03/29 13:26:12;;;;;;;2.80;1.90;;;;;;;;;;5030738;28;20029;-66
2024/03/29 13:28:58;;;;;;;2.65;1.73;;;;;;;;;;5030984;28;20037;-66
2024/03/29 13:31:43;;;;;;;3.78;2.30;;;;;;;;;;5018841;28;20033;-66
2024/03/29 13:34:29;;;;;;;2.67;1.88;;;;;;;;;;5013908;28;20125;-66
2024/03/29 13:37:14;;;;;;;4.53;3.25;;;;;;;;;;5028853;28;20036;-66
2024/03/29 13:40:00;;;;;;;4.80;2.30;;;;;;;;;;5033589;28;20044;-66
2024/03/29 13:42:46;;;;;;;3.28;2.40;;;;;;;;;;5019513;28;20026;-66
2024/03/29 13:45:31;;;;;;;4.65;2.60;;;;;;;;;;5000751;28;20487;-66
2024/03/29 13:48:17;;;;;;;2.85;2.17;;;;;;;;;;5014880;28;20026;-66
2024/03/29 13:51:03;;;;;;;2.40;2.20;;;;;;;;;;5014578;28;20026;-65
2024/03/29 13:53:49;;;;;;;3.08;2.33;;;;;;;;;;5017579;28;20022;-66
2024/03/29 13:56:34;;;;;;;4.93;2.10;;;;;;;;;;5034462;28;20029;-66
2024/03/29 13:59:20;;;;;;;2.47;2.28;;;;;;;;;;5027040;28;20547;-65
2024/03/29 14:02:06;;;;;;;2.72;2.10;;;;;;;;;;4995219;28;20029;-66
2024/03/29 14:04:52;;;;;;;2.70;2.45;;;;;;;;;;5001981;28;20036;-65
2024/03/29 14:07:38;;;;;;;2.95;2.38;;;;;;;;;;5013929;28;20022;-66
2024/03/29 14:10:23;;;;;;;2.65;2.45;;;;;;;;;;5013500;28;20033;-65
2024/03/29 14:13:09;;;;;;;3.10;2.65;;;;;;;;;;5018895;28;20499;-66
2024/03/29 14:15:59;;;;;;;5.25;2.28;;;;;;;;;;5014221;28;20095;-66
2024/03/29 14:18:44;;;;;;;4.03;2.50;;;;;;;;;;5028305;28;20084;-66
2024/03/29 14:21:30;;;;;;;3.00;2.25;;;;;;;;;;5032718;28;20103;-66
2024/03/29 14:24:16;;;;;;;3.58;2.78;;;;;;;;;;5024493;28;20024;-66
2024/03/29 14:27:05;;;;;;;3.80;2.17;;;;;;;;;;5033338;28;20028;-66
2024/03/29 14:29:51;;;;;;;3.40;2.47;;;;;;;;;;5028112;28;20104;-66
2024/03/29 14:32:37;;;;;;;3.08;2.38;;;;;;;;;;5009550;28;20026;-66
2024/03/29 14:35:23;;;;;;;3.25;2.33;;;;;;;;;;5022191;28;20420;-66
2024/03/29 14:38:09;;;;;;;3.65;2.30;;;;;;;;;;5014081;28;20033;-66
2024/03/29 14:40:55;;;;;;;3.83;2.30;;;;;;;;;;5013992;28;20038;-66
2024/03/29 14:43:40;;;;;;;4.68;2.10;;;;;;;;;;5014189;28;20045;-66
2024/03/29 14:46:26;;;;;;;4.22;2.35;;;;;;;;;;5033611;28;20030;-66
2024/03/29 14:49:13;;;;;;;2.65;2.22;;;;;;;;;;5030331;28;20546;-66
2024/03/29 14:51:59;;;;;;;3.00;2.20;;;;;;;;;;4995051;28;20030;-65
2024/03/29 14:54:45;;;;;;;4.00;2.35;;;;;;;;;;5021661;28;20033;-66
2024/03/29 14:57:31;;;;;;;3.97;2.55;;;;;;;;;;5016597;28;20099;-66
2024/03/29 15:00:16;;;;;;;4.07;2.50;;;;;;;;;;5012908;28;20112;-66
2024/03/29 15:03:02;;;;;;;4.82;2.40;;;;;;;;;;4993550;28;20023;-66
2024/03/29 15:05:48;;;;;;;5.45;2.00;;;;;;;;;;4999365;28;20068;-66
2024/03/29 15:08:33;;;;;;;3.83;2.65;;;;;;;;;;5023856;28;20033;-66
2024/03/29 15:11:19;;;;;;;7.13;2.60;;;;;;;;;;4993530;28;20026;-66
2024/03/29 15:14:06;;;;;;;3.50;2.65;;;;;;;;;;5001115;28;20026;-66
2024/03/29 15:16:51;;;;;;;6.80;2.03;;;;;;;;;;4993923;28;20447;-66
2024/03/29 15:19:37;;;;;;;4.72;3.13;;;;;;;;;;5002184;28;20412;-66
2024/03/29 15:22:23;;;;;;;5.00;2.40;;;;;;;;;;4993957;28;20504;-66
2024/03/29 15:25:09;;;;;;;3.25;2.22;;;;;;;;;;5009744;28;20034;-66
2024/03/29 15:30:57;;;;;;;4.13;2.75;;;;;;;;;;5015654;28;20129;-66
2024/03/29 15:33:43;;;;;;;3.88;2.40;;;;;;;;;;5031420;28;20108;-66
2024/03/29 15:36:29;;;;;;;2.70;2.50;;;;;;;;;;5029708;28;20034;-66
2024/03/29 15:39:19;;;;;;;5.07;2.65;;;;;;;;;;5027160;28;20084;-66
2024/03/29 15:42:05;;;;;;;4.10;3.15;;;;;;;;;;5033086;28;20022;-66
2024/03/29 15:44:50;;;;;;;4.22;3.20;;;;;;;;;;5016935;28;20041;-66
2024/03/29 15:47:36;;;;;;;5.72;2.65;;;;;;;;;;5012940;28;20049;-66
2024/03/29 15:50:22;;;;;;;7.70;2.75;;;;;;;;;;5013191;28;20033;-67
2024/03/29 15:53:07;;;;;;;4.22;2.30;;;;;;;;;;5012735;28;20022;-66
2024/03/29 15:55:53;;;;;;;2.95;2.13;;;;;;;;;;5018521;28;20040;-66
2024/03/29 15:58:39;;;;;;;4.30;2.70;;;;;;;;;;5030880;28;20375;-66
2024/03/29 16:01:25;;;;;;;3.80;1.65;;;;;;;;;;5016296;28;20403;-66
2024/03/29 16:04:10;;;;;;;2.15;1.73;;;;;;;;;;5012983;28;20110;-67
2024/03/29 16:06:56;;;;;;;3.70;2.35;;;;;;;;;;5020398;28;20034;-66
2024/03/29 16:09:41;;;;;;;4.13;2.45;;;;;;;;;;5009047;28;20029;-66
2024/03/29 16:12:27;;;;;;;4.72;2.33;;;;;;;;;;5013090;28;20022;-67
2024/03/29 16:15:13;;;;;;;3.72;2.38;;;;;;;;;;5021241;28;20515;-66
2024/03/29 16:17:58;;;;;;;4.18;1.88;;;;;;;;;;5031514;28;20406;-66
2024/03/29 16:20:44;;;;;;;3.92;2.33;;;;;;;;;;5020214;28;20018;-66
2024/03/29 16:23:32;;;;;;;3.28;2.45;;;;;;;;;;4999256;28;20507;-66
2024/03/29 16:26:18;;;;;;;2.15;1.95;;;;;;;;;;5014256;28;20034;-66
2024/03/29 16:29:09;;;;;;;2.85;2.13;;;;;;;;;;5033414;28;20151;-66
2024/03/29 16:31:55;;;;;;;2.83;1.83;;;;;;;;;;5026215;28;20084;-66
2024/03/29 16:34:42;;;;;;;3.67;2.17;;;;;;;;;;5015995;28;20080;-66
2024/03/29 16:37:27;;;;;;;2.20;1.67;;;;;;;;;;5001280;28;20018;-66
2024/03/29 16:40:13;;;;;;;2.97;2.13;;;;;;;;;;5016489;28;20503;-66
2024/03/29 16:42:59;;;;;;;3.75;2.20;;;;;;;;;;5002256;28;20018;-66
2024/03/29 16:45:44;;;;;;;3.38;2.20;;;;;;;;;;5017910;28;20107;-66
2024/03/29 16:48:30;;;;;;;2.55;2.03;;;;;;;;;;5015177;28;20033;-66
2024/03/29 16:51:15;;;;;;;2.67;1.83;;;;;;;;;;5009264;28;20025;-66